createdAt,value
2022-08-17T00:00:34.523Z,22.23
2022-08-17T00:02:41.100Z,22.24
2022-08-17T00:04:50.460Z,22.18
2022-08-17T00:06:53.731Z,22.15
2022-08-17T00:09:00.107Z,22.15
2022-08-17T00:11:12.777Z,22.08
2022-08-17T00:13:18.834Z,22.04
2022-08-17T00:15:23.839Z,21.97
2022-08-17T00:17:27.016Z,21.95
2022-08-17T00:19:29.979Z,21.97
2022-08-17T00:22:00.006Z,22.01
2022-08-17T00:23:58.225Z,22.05
2022-08-17T00:26:01.135Z,22.08
2022-08-17T00:28:04.294Z,22.06
2022-08-17T00:30:09.710Z,22.02
2022-08-17T00:33:15.012Z,21.98
2022-08-17T00:34:35.725Z,21.91
2022-08-17T00:36:38.734Z,21.87
2022-08-17T00:38:42.106Z,21.88
2022-08-17T00:40:49.410Z,21.85
2022-08-17T00:42:54.917Z,21.85
2022-08-17T00:44:58.181Z,21.79
2022-08-17T00:47:01.133Z,21.78
2022-08-17T00:49:04.887Z,21.82
2022-08-17T00:51:20.094Z,21.84
2022-08-17T00:53:23.317Z,21.90
2022-08-17T00:55:26.619Z,21.91
2022-08-17T00:57:34.975Z,21.95
2022-08-17T00:59:41.582Z,22.02
2022-08-17T01:01:44.985Z,22.07
2022-08-17T01:03:47.995Z,22.10
2022-08-17T01:05:52.540Z,22.09
2022-08-17T01:07:56.261Z,22.11
2022-08-17T01:09:59.998Z,22.09
2022-08-17T01:12:03.114Z,22.10
2022-08-17T01:14:08.879Z,22.13
2022-08-17T01:16:17.404Z,22.12
2022-08-17T01:18:20.511Z,22.10
2022-08-17T01:20:23.904Z,22.12
2022-08-17T01:22:28.314Z,22.17
2022-08-17T01:24:31.635Z,22.19
2022-08-17T01:26:39.224Z,22.18
2022-08-17T01:28:53.385Z,22.18
2022-08-17T01:31:00.782Z,22.18
2022-08-17T01:33:04.297Z,22.19
2022-08-17T01:35:08.755Z,22.18
2022-08-17T01:37:12.446Z,22.18
2022-08-17T01:39:30.128Z,22.17
2022-08-17T01:41:33.230Z,22.17
2022-08-17T01:43:39.865Z,22.18
2022-08-17T01:45:46.074Z,22.15
2022-08-17T01:47:49.364Z,22.10
2022-08-17T01:49:52.293Z,22.09
2022-08-17T01:51:55.396Z,22.10
2022-08-17T01:54:00.424Z,22.05
2022-08-17T01:56:12.875Z,22.02
2022-08-17T01:58:16.052Z,22.00
2022-08-17T02:00:18.979Z,21.97
2022-08-17T02:02:30.316Z,21.95
2022-08-17T02:04:35.138Z,21.91
2022-08-17T02:06:52.422Z,21.89
2022-08-17T02:09:02.835Z,21.86
2022-08-17T02:11:19.000Z,21.84
2022-08-17T02:13:23.351Z,21.83
2022-08-17T02:15:26.485Z,21.85
2022-08-17T02:17:29.935Z,21.85
2022-08-17T02:19:32.928Z,21.81
2022-08-17T02:21:36.174Z,21.80
2022-08-17T02:23:42.436Z,21.77
2022-08-17T02:25:47.700Z,21.79
2022-08-17T02:27:51.942Z,21.73
2022-08-17T02:29:54.925Z,21.76
2022-08-17T02:31:58.507Z,21.68
2022-08-17T02:34:04.493Z,21.65
2022-08-17T02:36:14.304Z,21.64
2022-08-17T02:38:17.414Z,21.58
2022-08-17T02:40:36.269Z,21.57
2022-08-17T02:42:41.160Z,21.48
2022-08-17T02:44:45.476Z,21.49
2022-08-17T02:46:48.440Z,21.48
2022-08-17T02:48:51.362Z,21.47
2022-08-17T02:50:54.263Z,21.45
2022-08-17T02:53:01.655Z,21.40
2022-08-17T02:55:06.251Z,21.37
2022-08-17T02:57:09.210Z,21.32
2022-08-17T02:59:12.112Z,21.32
2022-08-17T03:01:17.510Z,21.34
2022-08-17T03:03:20.830Z,21.34
2022-08-17T03:05:25.828Z,21.32
2022-08-17T03:07:29.398Z,21.30
2022-08-17T03:09:32.819Z,21.35
2022-08-17T03:11:35.766Z,21.26
2022-08-17T03:13:39.405Z,21.31
2022-08-17T03:15:45.098Z,21.31
2022-08-17T03:17:49.557Z,21.29
2022-08-17T03:19:52.466Z,21.23
2022-08-17T03:21:55.612Z,21.27
2022-08-17T03:23:58.663Z,21.27
2022-08-17T03:26:02.248Z,21.17
2022-08-17T03:28:06.237Z,21.13
2022-08-17T03:30:11.253Z,21.13
2022-08-17T03:32:15.806Z,21.12
2022-08-17T03:34:20.217Z,21.05
2022-08-17T03:36:23.644Z,21.05
2022-08-17T03:38:27.039Z,21.08
2022-08-17T03:40:34.574Z,21.06
2022-08-17T03:42:54.823Z,21.05
2022-08-17T03:44:59.203Z,21.08
2022-08-17T03:47:18.831Z,21.08
2022-08-17T03:49:40.331Z,21.12
2022-08-17T03:52:01.101Z,21.08
2022-08-17T03:54:21.842Z,21.09
2022-08-17T03:56:42.171Z,21.10
2022-08-17T03:58:45.118Z,21.12
2022-08-17T04:00:48.347Z,21.12
2022-08-17T04:02:51.925Z,21.09
2022-08-17T04:04:56.493Z,21.07
2022-08-17T04:06:59.431Z,21.08
2022-08-17T04:09:02.434Z,21.11
2022-08-17T04:11:12.578Z,21.14
2022-08-17T04:13:15.568Z,21.16
2022-08-17T04:15:27.415Z,21.13
2022-08-17T04:17:30.750Z,21.15
2022-08-17T04:19:33.680Z,21.10
2022-08-17T04:21:38.149Z,21.12
2022-08-17T04:23:41.382Z,21.13
2022-08-17T04:25:46.206Z,21.10
2022-08-17T04:27:49.390Z,21.10
2022-08-17T04:29:55.553Z,21.10
2022-08-17T04:31:59.125Z,21.11
2022-08-17T04:34:02.562Z,21.05
2022-08-17T04:36:16.557Z,20.99
2022-08-17T04:38:22.733Z,20.97
2022-08-17T04:40:44.844Z,20.95
2022-08-17T04:43:01.703Z,20.95
2022-08-17T04:45:05.673Z,20.95
2022-08-17T04:47:10.607Z,20.88
2022-08-17T04:49:16.366Z,20.90
2022-08-17T04:51:21.560Z,20.93
2022-08-17T04:53:25.918Z,20.95
2022-08-17T04:55:29.034Z,20.96
2022-08-17T04:57:39.515Z,20.93
2022-08-17T04:59:44.783Z,20.93
2022-08-17T05:01:50.122Z,20.96
2022-08-17T05:03:53.955Z,20.91
2022-08-17T05:05:56.970Z,20.93
2022-08-17T05:08:01.791Z,20.96
2022-08-17T05:10:06.876Z,20.95
2022-08-17T05:12:09.916Z,21.02
2022-08-17T05:14:13.050Z,21.05
2022-08-17T05:16:15.990Z,21.12
2022-08-17T05:18:19.148Z,21.22
2022-08-17T05:20:22.473Z,21.24
2022-08-17T05:22:25.545Z,21.31
2022-08-17T05:24:38.941Z,21.39
2022-08-17T05:26:47.765Z,21.44
2022-08-17T05:28:52.513Z,21.39
2022-08-17T05:30:58.731Z,21.42
2022-08-17T05:33:03.647Z,21.42
2022-08-17T05:35:07.670Z,21.41
2022-08-17T05:37:10.607Z,21.48
2022-08-17T05:39:16.439Z,21.44
2022-08-17T05:41:20.642Z,21.46
2022-08-17T05:43:26.328Z,21.47
2022-08-17T05:45:54.592Z,21.54
2022-08-17T05:47:52.562Z,21.57
2022-08-17T05:49:55.960Z,21.59
2022-08-17T05:52:20.085Z,21.69
2022-08-17T05:54:40.539Z,21.79
2022-08-17T05:56:59.402Z,22.03
2022-08-17T05:59:09.625Z,22.39
2022-08-17T06:01:21.905Z,22.62
2022-08-17T06:03:42.859Z,23.10
2022-08-17T06:05:55.452Z,23.78
2022-08-17T06:08:04.765Z,24.07
2022-08-17T06:10:14.829Z,24.24
2022-08-17T06:12:34.364Z,24.12
2022-08-17T06:14:50.433Z,24.25
2022-08-17T06:16:56.467Z,24.22
2022-08-17T06:19:02.090Z,24.02
2022-08-17T06:21:16.961Z,23.87
2022-08-17T06:23:32.282Z,23.59
2022-08-17T06:25:38.489Z,23.49
2022-08-17T06:27:45.004Z,23.44
2022-08-17T06:29:53.630Z,23.27
2022-08-17T06:31:57.527Z,23.21
2022-08-17T06:34:03.803Z,23.18
2022-08-17T06:36:25.026Z,23.11
2022-08-17T06:38:38.575Z,23.06
2022-08-17T06:40:53.467Z,23.11
2022-08-17T06:43:06.429Z,23.21
2022-08-17T06:45:15.996Z,23.37
2022-08-17T06:47:28.401Z,23.44
2022-08-17T06:49:41.261Z,23.46
2022-08-17T06:51:48.518Z,23.47
2022-08-17T06:53:59.394Z,23.48
2022-08-17T06:56:12.645Z,23.61
2022-08-17T06:58:16.992Z,23.60
2022-08-17T07:00:24.288Z,23.53
2022-08-17T07:02:51.474Z,23.60
2022-08-17T07:04:56.291Z,23.53
2022-08-17T07:07:22.290Z,23.61
2022-08-17T07:09:29.732Z,23.76
2022-08-17T07:11:35.547Z,23.84
2022-08-17T07:13:51.537Z,23.91
2022-08-17T07:16:15.980Z,23.85
2022-08-17T07:18:18.935Z,23.87
2022-08-17T07:20:23.427Z,23.91
2022-08-17T07:22:30.416Z,23.95
2022-08-17T07:24:57.238Z,24.06
2022-08-17T07:27:16.467Z,24.05
2022-08-17T07:29:19.917Z,24.12
2022-08-17T07:31:25.284Z,24.20
2022-08-17T07:33:30.180Z,24.31
2022-08-17T07:35:41.212Z,24.47
2022-08-17T07:37:51.011Z,24.64
2022-08-17T07:39:59.619Z,24.93
2022-08-17T07:42:18.553Z,25.11
2022-08-17T07:44:21.561Z,25.34
2022-08-17T07:46:44.871Z,25.39
2022-08-17T07:48:49.780Z,25.42
2022-08-17T07:50:54.023Z,25.61
2022-08-17T07:52:57.164Z,25.81
2022-08-17T07:55:00.518Z,27.02
2022-08-17T07:57:10.215Z,28.09
2022-08-17T07:59:23.201Z,28.52
2022-08-17T08:01:39.645Z,29.57
2022-08-17T08:03:52.443Z,30.58
2022-08-17T08:06:01.968Z,30.16
2022-08-17T08:10:28.660Z,30.39
2022-08-17T08:12:34.898Z,30.35
2022-08-17T08:14:39.656Z,29.94
2022-08-17T08:16:57.393Z,29.99
2022-08-17T08:19:01.891Z,30.25
2022-08-17T08:21:17.676Z,30.49
2022-08-17T08:23:32.836Z,30.62
2022-08-17T08:25:45.242Z,31.19
2022-08-17T08:27:58.531Z,31.12
2022-08-17T08:30:07.054Z,31.97
2022-08-17T08:32:20.148Z,33.45
2022-08-17T08:35:00.580Z,33.65
2022-08-17T08:37:15.386Z,34.52
2022-08-17T08:39:24.565Z,34.78
2022-08-17T08:41:37.923Z,34.98
2022-08-17T08:43:50.851Z,34.62
2022-08-17T08:46:01.545Z,34.00
2022-08-17T08:48:45.806Z,34.57
2022-08-17T08:50:43.793Z,34.12
2022-08-17T08:52:59.185Z,34.49
2022-08-17T08:55:07.709Z,34.01
2022-08-17T08:57:31.115Z,32.64
2022-08-17T08:59:44.572Z,32.51
2022-08-17T09:02:00.881Z,32.34
2022-08-17T09:04:25.035Z,32.42
2022-08-17T09:06:40.415Z,32.70
2022-08-17T09:08:57.036Z,31.89
2022-08-17T09:11:04.302Z,32.32
2022-08-17T09:13:11.869Z,32.70
2022-08-17T09:15:18.424Z,32.76
2022-08-17T09:17:23.130Z,32.69
2022-08-17T09:19:35.370Z,32.86
2022-08-17T09:21:48.077Z,32.61
2022-08-17T09:24:00.064Z,32.59
2022-08-17T09:26:17.976Z,32.31
2022-08-17T09:28:24.847Z,32.24
2022-08-17T09:30:29.294Z,31.39
2022-08-17T09:32:35.316Z,31.60
2022-08-17T09:34:43.523Z,31.77
2022-08-17T09:36:51.652Z,31.74
2022-08-17T09:38:59.271Z,31.58
2022-08-17T09:41:17.665Z,31.10
2022-08-17T09:43:27.326Z,30.94
2022-08-17T09:45:33.208Z,30.78
2022-08-17T09:47:46.453Z,30.46
2022-08-17T09:49:54.265Z,29.94
2022-08-17T09:52:01.061Z,30.11
2022-08-17T09:54:37.142Z,29.78
2022-08-17T09:56:46.165Z,29.78
2022-08-17T09:59:05.197Z,29.89
2022-08-17T10:01:23.155Z,29.87
2022-08-17T10:03:34.285Z,29.74
2022-08-17T10:05:46.336Z,29.57
2022-08-17T10:07:56.007Z,29.68
2022-08-17T10:10:02.546Z,29.26
2022-08-17T10:12:21.387Z,28.98
2022-08-17T10:14:37.747Z,28.98
2022-08-17T10:16:55.865Z,29.04
2022-08-17T10:19:08.794Z,29.00
2022-08-17T10:21:35.064Z,28.81
2022-08-17T10:23:55.154Z,28.55
2022-08-17T10:26:20.111Z,28.29
2022-08-17T10:28:29.479Z,28.31
2022-08-17T10:30:34.900Z,28.39
2022-08-17T10:32:42.106Z,28.34
2022-08-17T10:35:04.892Z,28.23
2022-08-17T10:37:21.637Z,28.18
2022-08-17T10:39:31.684Z,27.90
2022-08-17T10:41:40.835Z,27.77
2022-08-17T10:44:30.627Z,27.86
2022-08-17T10:46:30.821Z,27.71
2022-08-17T10:48:37.357Z,27.69
2022-08-17T10:50:59.604Z,27.56
2022-08-17T10:53:04.426Z,27.57
2022-08-17T10:55:14.545Z,27.61
2022-08-17T10:57:37.992Z,27.71
2022-08-17T10:59:54.143Z,27.84
2022-08-17T11:02:10.464Z,27.91
2022-08-17T11:04:26.403Z,27.70
2022-08-17T11:06:36.400Z,27.58
2022-08-17T11:09:06.759Z,27.64
2022-08-17T11:11:35.861Z,27.73
2022-08-17T11:13:44.981Z,27.69
2022-08-17T11:15:59.015Z,27.65
2022-08-17T11:18:12.440Z,27.56
2022-08-17T11:20:38.052Z,27.38
2022-08-17T11:23:07.645Z,27.31
2022-08-17T11:25:15.420Z,27.16
2022-08-17T11:27:26.715Z,26.94
2022-08-17T11:29:35.140Z,27.01
2022-08-17T11:31:42.633Z,27.12
2022-08-17T11:33:54.628Z,27.11
2022-08-17T11:36:13.750Z,27.21
2022-08-17T11:38:19.867Z,26.81
2022-08-17T11:40:46.396Z,26.73
2022-08-17T11:43:08.798Z,26.90
2022-08-17T11:45:32.375Z,26.94
2022-08-17T11:48:26.113Z,27.10
2022-08-17T11:50:50.258Z,27.22
2022-08-17T11:52:53.232Z,27.32
2022-08-17T11:55:07.722Z,27.44
2022-08-17T11:58:00.945Z,27.44
2022-08-17T12:00:10.295Z,27.23
2022-08-17T12:02:49.026Z,27.35
2022-08-17T12:05:04.844Z,27.62
2022-08-17T12:07:19.455Z,27.76
2022-08-17T12:09:25.075Z,27.87
2022-08-17T12:11:58.767Z,28.00
2022-08-17T12:13:58.343Z,28.05
2022-08-17T12:16:01.689Z,27.97
2022-08-17T12:18:05.552Z,28.03
2022-08-17T12:20:19.701Z,28.20
2022-08-17T12:22:26.538Z,28.37
2022-08-17T12:24:47.275Z,28.49
2022-08-17T12:26:54.902Z,28.71
2022-08-17T12:29:01.580Z,28.89
2022-08-17T12:31:16.765Z,28.90
2022-08-17T12:33:25.507Z,29.27
2022-08-17T12:35:35.141Z,29.42
2022-08-17T12:37:46.723Z,29.49
2022-08-17T12:39:53.393Z,29.43
2022-08-17T12:42:02.182Z,28.91
2022-08-17T12:44:14.133Z,29.22
2022-08-17T12:46:19.772Z,29.50
2022-08-17T12:48:24.477Z,29.80
2022-08-17T12:50:28.638Z,30.07
2022-08-17T12:52:33.033Z,30.29
2022-08-17T12:54:41.988Z,30.49
2022-08-17T12:56:46.461Z,30.73
2022-08-17T12:58:54.411Z,30.20
2022-08-17T13:01:04.234Z,31.09
2022-08-17T13:03:09.594Z,31.07
2022-08-17T13:05:24.375Z,30.94
2022-08-17T13:07:33.282Z,31.31
2022-08-17T13:09:40.284Z,31.54
2022-08-17T13:11:49.628Z,31.50
2022-08-17T13:13:55.054Z,31.92
2022-08-17T13:16:01.482Z,31.80
2022-08-17T13:18:07.756Z,31.29
2022-08-17T13:20:15.708Z,31.65
2022-08-17T13:22:21.355Z,31.66
2022-08-17T13:24:27.115Z,32.00
2022-08-17T13:26:33.799Z,32.10
2022-08-17T13:28:38.036Z,32.09
2022-08-17T13:30:40.943Z,32.05
2022-08-17T13:32:47.183Z,31.83
2022-08-17T13:35:11.983Z,32.18
2022-08-17T13:37:26.995Z,31.59
2022-08-17T13:39:29.970Z,32.08
2022-08-17T13:41:34.734Z,32.08
2022-08-17T13:43:45.601Z,31.91
2022-08-17T13:45:53.368Z,31.96
2022-08-17T13:48:08.401Z,31.92
2022-08-17T13:50:21.147Z,32.40
2022-08-17T13:52:36.188Z,32.71
2022-08-17T13:54:41.314Z,33.04
2022-08-17T13:56:55.711Z,33.02
2022-08-17T13:59:01.289Z,33.11
2022-08-17T14:01:36.675Z,33.20
2022-08-17T14:03:41.074Z,33.30
2022-08-17T14:05:47.612Z,32.45
2022-08-17T14:07:56.368Z,32.70
2022-08-17T14:10:01.455Z,33.07
2022-08-17T14:12:06.499Z,33.21
2022-08-17T14:14:09.448Z,33.02
2022-08-17T14:16:12.364Z,32.99
2022-08-17T14:18:17.743Z,33.20
2022-08-17T14:20:24.615Z,33.40
2022-08-17T14:22:30.516Z,33.34
2022-08-17T14:24:35.361Z,33.16
2022-08-17T14:26:38.397Z,32.79
2022-08-17T14:28:43.027Z,31.65
2022-08-17T14:30:59.132Z,31.66
2022-08-17T14:33:02.339Z,31.50
2022-08-17T14:35:06.664Z,31.53
2022-08-17T14:37:11.180Z,31.33
2022-08-17T14:39:15.126Z,31.40
2022-08-17T14:41:22.010Z,31.34
2022-08-17T14:43:26.047Z,31.24
2022-08-17T14:45:32.119Z,31.27
2022-08-17T14:47:38.411Z,31.28
2022-08-17T14:49:42.163Z,31.21
2022-08-17T14:51:45.045Z,31.18
2022-08-17T14:53:49.552Z,31.12
2022-08-17T14:55:52.506Z,31.16
2022-08-17T14:57:55.438Z,31.13
2022-08-17T14:59:59.219Z,31.07
2022-08-17T15:02:02.712Z,31.04
2022-08-17T15:04:06.237Z,30.90
2022-08-17T15:06:15.292Z,30.98
2022-08-17T15:08:19.605Z,30.97
2022-08-17T15:10:25.845Z,31.11
2022-08-17T15:12:32.685Z,31.18
2022-08-17T15:14:37.213Z,31.26
2022-08-17T15:16:40.246Z,31.23
2022-08-17T15:18:43.169Z,31.38
2022-08-17T15:20:48.613Z,31.33
2022-08-17T15:22:55.102Z,31.33
2022-08-17T15:24:58.466Z,31.27
2022-08-17T15:27:02.756Z,30.79
2022-08-17T15:29:05.737Z,30.93
2022-08-17T15:31:31.827Z,30.97
2022-08-17T15:33:35.472Z,30.93
2022-08-17T15:35:38.483Z,30.77
2022-08-17T15:37:41.865Z,30.63
2022-08-17T15:39:44.872Z,30.78
2022-08-17T15:41:58.517Z,30.80
2022-08-17T15:44:03.267Z,30.52
2022-08-17T15:48:41.324Z,30.75
2022-08-17T15:50:45.163Z,30.72
2022-08-17T15:52:48.158Z,30.66
2022-08-17T15:54:52.610Z,30.79
2022-08-17T15:56:55.587Z,30.66
2022-08-17T15:58:59.303Z,30.54
2022-08-17T16:01:14.882Z,30.56
2022-08-17T16:04:04.131Z,30.62
2022-08-17T16:05:44.725Z,30.80
2022-08-17T16:07:49.664Z,30.77
2022-08-17T16:09:52.714Z,30.74
2022-08-17T16:11:56.458Z,30.58
2022-08-17T16:13:59.672Z,30.52
2022-08-17T16:16:05.480Z,30.50
2022-08-17T16:18:08.445Z,30.45
2022-08-17T16:20:20.108Z,30.33
2022-08-17T16:22:32.370Z,30.12
2022-08-17T16:24:37.025Z,30.16
2022-08-17T16:26:40.006Z,30.21
2022-08-17T16:28:43.319Z,29.64
2022-08-17T16:30:46.431Z,28.92
2022-08-17T16:32:51.788Z,28.96
2022-08-17T16:34:55.141Z,29.04
2022-08-17T16:36:58.158Z,29.22
2022-08-17T16:39:01.472Z,29.29
2022-08-17T16:41:04.699Z,29.34
2022-08-17T16:43:10.544Z,29.30
2022-08-17T16:45:16.914Z,29.31
2022-08-17T16:47:20.373Z,29.15
2022-08-17T16:49:37.234Z,28.42
2022-08-17T16:51:41.470Z,28.84
2022-08-17T16:53:44.481Z,28.96
2022-08-17T16:55:51.884Z,28.95
2022-08-17T16:57:54.794Z,28.81
2022-08-17T16:59:57.982Z,28.83
2022-08-17T17:02:05.039Z,28.68
2022-08-17T17:04:10.332Z,28.82
2022-08-17T17:06:30.032Z,28.88
2022-08-17T17:08:40.663Z,28.88
2022-08-17T17:10:47.362Z,28.88
2022-08-17T17:13:01.244Z,28.81
2022-08-17T17:15:07.612Z,28.75
2022-08-17T17:17:14.999Z,28.70
2022-08-17T17:19:34.569Z,28.71
2022-08-17T17:21:46.308Z,28.68
2022-08-17T17:23:54.801Z,28.51
2022-08-17T17:26:07.058Z,28.38
2022-08-17T17:28:22.380Z,28.23
2022-08-17T17:30:28.157Z,28.28
2022-08-17T17:32:37.835Z,28.25
2022-08-17T17:34:45.752Z,28.23
2022-08-17T17:36:57.554Z,28.21
2022-08-17T17:39:05.788Z,28.08
2022-08-17T17:41:34.087Z,28.04
2022-08-17T17:43:40.307Z,27.92
2022-08-17T17:45:46.150Z,27.85
2022-08-17T17:47:49.764Z,27.79
2022-08-17T17:49:52.766Z,27.56
2022-08-17T17:52:10.125Z,27.72
2022-08-17T17:54:28.102Z,27.66
2022-08-17T17:56:43.963Z,27.66
2022-08-17T17:58:53.824Z,27.39
2022-08-17T18:01:08.242Z,27.55
2022-08-17T18:03:23.479Z,27.50
2022-08-17T18:05:49.329Z,27.49
2022-08-17T18:07:57.434Z,27.29
2022-08-17T18:10:19.491Z,27.23
2022-08-17T18:12:37.309Z,27.31
2022-08-17T18:14:58.276Z,27.28
2022-08-17T18:17:02.142Z,27.21
2022-08-17T18:19:07.159Z,27.17
2022-08-17T18:21:44.352Z,27.09
2022-08-17T18:23:53.572Z,27.05
2022-08-17T18:25:58.665Z,27.00
2022-08-17T18:28:01.638Z,26.95
2022-08-17T18:30:24.824Z,26.88
2022-08-17T18:32:37.239Z,26.83
2022-08-17T18:34:48.468Z,26.74
2022-08-17T18:36:52.625Z,26.71
2022-08-17T18:39:11.426Z,26.55
2022-08-17T18:41:30.376Z,26.53
2022-08-17T18:43:44.495Z,26.44
2022-08-17T18:45:58.083Z,26.41
2022-08-17T18:48:01.014Z,26.34
2022-08-17T18:50:22.617Z,26.29
2022-08-17T18:52:28.789Z,26.17
2022-08-17T18:54:34.263Z,26.07
2022-08-17T18:56:38.137Z,26.04
2022-08-17T18:58:41.083Z,26.00
2022-08-17T19:00:49.036Z,25.95
2022-08-17T19:02:54.748Z,25.93
2022-08-17T19:05:01.903Z,25.85
2022-08-17T19:07:29.110Z,25.80
2022-08-17T19:09:35.918Z,25.70
2022-08-17T19:11:39.891Z,25.65
2022-08-17T19:13:45.656Z,25.62
2022-08-17T19:16:14.491Z,25.60
2022-08-17T19:18:45.282Z,25.46
2022-08-17T19:20:53.063Z,25.38
2022-08-17T19:23:03.820Z,25.07
2022-08-17T19:25:15.196Z,24.94
2022-08-17T19:27:23.216Z,25.01
2022-08-17T19:29:31.238Z,24.97
2022-08-17T19:31:37.162Z,24.79
2022-08-17T19:33:40.159Z,24.54
2022-08-17T19:35:50.686Z,24.64
2022-08-17T19:38:02.681Z,24.69
2022-08-17T19:40:35.051Z,24.67
2022-08-17T19:42:50.200Z,24.67
2022-08-17T19:44:58.822Z,24.66
2022-08-17T19:47:07.758Z,24.62
2022-08-17T19:49:15.777Z,24.59
2022-08-17T19:51:41.831Z,24.53
2022-08-17T19:54:05.031Z,24.54
2022-08-17T19:56:35.360Z,24.48
2022-08-17T19:58:48.789Z,24.47
2022-08-17T20:00:55.679Z,24.39
2022-08-17T20:03:06.175Z,24.26
2022-08-17T20:05:14.545Z,24.09
2022-08-17T20:07:21.886Z,24.04
2022-08-17T20:09:33.604Z,24.06
2022-08-17T20:11:43.661Z,24.10
2022-08-17T20:14:03.710Z,24.08
2022-08-17T20:16:09.997Z,23.97
2022-08-17T20:18:22.682Z,23.99
2022-08-17T20:20:43.750Z,23.68
2022-08-17T20:22:55.390Z,23.57
2022-08-17T20:25:09.910Z,23.52
2022-08-17T20:27:17.958Z,23.38
2022-08-17T20:29:37.586Z,23.35
2022-08-17T20:31:46.777Z,23.21
2022-08-17T20:33:50.642Z,23.27
2022-08-17T20:36:27.217Z,23.18
2022-08-17T20:38:41.423Z,23.26
2022-08-17T20:41:12.558Z,23.27
2022-08-17T20:43:55.255Z,23.26
2022-08-17T20:46:11.742Z,23.28
2022-08-17T20:48:36.871Z,23.22
2022-08-17T20:50:44.309Z,22.99
2022-08-17T20:52:54.814Z,22.97
2022-08-17T20:54:58.490Z,23.00
2022-08-17T20:57:02.005Z,23.01
2022-08-17T20:59:09.246Z,23.01
2022-08-17T21:05:34.746Z,23.04
2022-08-17T21:07:55.782Z,22.81
2022-08-17T21:10:16.589Z,22.81
2022-08-17T21:12:41.410Z,22.85
2022-08-17T21:14:59.697Z,22.66
2022-08-17T21:17:17.243Z,22.62
2022-08-17T21:19:31.272Z,22.63
2022-08-17T21:21:42.456Z,22.68
2022-08-17T21:24:11.895Z,22.67
2022-08-17T21:26:29.656Z,22.65
2022-08-17T21:28:59.933Z,22.64
2022-08-17T21:31:09.188Z,22.49
2022-08-17T21:33:25.015Z,22.55
2022-08-17T21:35:30.579Z,22.57
2022-08-17T21:37:40.703Z,22.57
2022-08-17T21:39:48.115Z,22.59
2022-08-17T21:41:54.099Z,22.57
2022-08-17T21:44:05.292Z,22.49
2022-08-17T21:46:12.947Z,22.35
2022-08-17T21:48:18.285Z,22.32
2022-08-17T21:50:24.645Z,22.17
2022-08-17T21:52:28.423Z,22.19
2022-08-17T21:54:35.780Z,22.14
2022-08-17T21:56:42.204Z,22.08
2022-08-17T21:58:48.536Z,22.02
2022-08-17T22:01:10.446Z,21.92
2022-08-17T22:03:23.972Z,21.80
2022-08-17T22:05:33.126Z,21.69
2022-08-17T22:07:40.105Z,21.68
2022-08-17T22:09:45.122Z,21.60
2022-08-17T22:11:55.452Z,21.63
2022-08-17T22:14:05.567Z,21.65
2022-08-17T22:16:15.648Z,21.68
2022-08-17T22:18:33.234Z,21.75
2022-08-17T22:20:36.664Z,21.74
2022-08-17T22:22:56.733Z,21.67
2022-08-17T22:25:02.992Z,21.73
2022-08-17T22:27:11.118Z,21.72
2022-08-17T22:29:53.335Z,21.71
2022-08-17T22:32:00.876Z,21.56
2022-08-17T22:34:16.222Z,21.48
2022-08-17T22:36:29.028Z,21.45
2022-08-17T22:38:33.538Z,21.45
2022-08-17T22:40:37.084Z,21.43
2022-08-17T22:42:47.301Z,21.40
2022-08-17T22:44:51.934Z,21.39
2022-08-17T22:46:59.037Z,21.39
2022-08-17T22:49:02.044Z,21.40
2022-08-17T22:51:12.555Z,21.43
2022-08-17T22:53:35.418Z,21.34
2022-08-17T22:56:07.779Z,21.39
2022-08-17T22:58:31.410Z,21.37
2022-08-17T23:00:39.159Z,21.32
2022-08-17T23:03:10.546Z,21.28
2022-08-17T23:05:21.670Z,21.24
2022-08-17T23:07:25.099Z,21.13
2022-08-17T23:09:29.308Z,21.04
2022-08-17T23:11:36.721Z,20.98
2022-08-17T23:13:55.005Z,20.96
2022-08-17T23:15:58.150Z,20.97
2022-08-17T23:18:04.665Z,20.96
2022-08-17T23:20:12.058Z,20.92
2022-08-17T23:22:15.187Z,20.81
2022-08-17T23:24:21.874Z,20.76
2022-08-17T23:26:26.881Z,20.72
2022-08-17T23:28:29.883Z,20.69
2022-08-17T23:30:37.218Z,20.72
2022-08-17T23:32:53.740Z,20.71
2022-08-17T23:34:59.126Z,20.75
2022-08-17T23:37:02.738Z,20.80
2022-08-17T23:39:06.254Z,20.80
2022-08-17T23:41:13.722Z,20.83
2022-08-17T23:43:24.801Z,20.85
2022-08-17T23:45:28.873Z,20.88
2022-08-17T23:47:33.259Z,20.86
2022-08-17T23:49:37.457Z,20.86
2022-08-17T23:51:42.522Z,20.84
2022-08-17T23:53:47.993Z,20.79
2022-08-17T23:56:10.234Z,20.78
2022-08-17T23:58:14.281Z,20.78
